createdAt,value
2022-08-02T00:00:55.706Z,100.00
2022-08-02T00:03:45.102Z,100.00
2022-08-02T00:06:33.259Z,100.00
2022-08-02T00:09:21.568Z,100.00
2022-08-02T00:12:12.861Z,100.00
2022-08-02T00:15:01.399Z,100.00
2022-08-02T00:17:50.963Z,100.00
2022-08-02T00:20:39.163Z,100.00
2022-08-02T00:23:27.235Z,100.00
2022-08-02T00:26:15.227Z,100.00
2022-08-02T00:29:03.248Z,100.00
2022-08-02T00:31:51.366Z,100.00
2022-08-02T00:34:40.785Z,100.00
2022-08-02T00:37:28.811Z,100.00
2022-08-02T00:40:16.918Z,100.00
2022-08-02T00:43:07.914Z,100.00
2022-08-02T00:46:02.404Z,100.00
2022-08-02T00:48:51.685Z,100.00
2022-08-02T00:51:41.573Z,100.00
2022-08-02T00:54:29.835Z,100.00
2022-08-02T00:57:17.950Z,100.00
2022-08-02T01:00:08.034Z,100.00
2022-08-02T01:02:56.041Z,100.00
2022-08-02T01:06:09.130Z,100.00
2022-08-02T01:08:53.941Z,100.00
2022-08-02T01:11:41.956Z,100.00
2022-08-02T01:14:30.225Z,100.00
2022-08-02T01:17:24.798Z,100.00
2022-08-02T01:20:24.022Z,100.00
2022-08-02T01:23:29.818Z,100.00
2022-08-02T01:26:43.373Z,100.00
2022-08-02T01:29:35.922Z,100.00
2022-08-02T01:32:29.399Z,100.00
2022-08-02T01:35:23.137Z,100.00
2022-08-02T01:38:17.789Z,100.00
2022-08-02T01:41:10.698Z,100.00
2022-08-02T01:44:01.493Z,100.00
2022-08-02T01:46:53.076Z,100.00
2022-08-02T01:49:46.038Z,100.00
2022-08-02T01:52:38.544Z,100.00
2022-08-02T01:55:35.155Z,100.00
2022-08-02T01:58:40.457Z,100.00
2022-08-02T02:01:29.251Z,100.00
2022-08-02T02:04:19.818Z,100.00
2022-08-02T02:07:08.592Z,100.00
2022-08-02T02:09:59.171Z,100.00
2022-08-02T02:12:51.083Z,100.00
2022-08-02T02:15:44.652Z,100.00
2022-08-02T02:18:35.236Z,100.00
2022-08-02T02:21:24.649Z,100.00
2022-08-02T02:24:12.646Z,100.00
2022-08-02T02:27:02.804Z,100.00
2022-08-02T02:29:52.775Z,100.00
2022-08-02T02:32:41.934Z,100.00
2022-08-02T02:35:33.110Z,100.00
2022-08-02T02:38:23.901Z,100.00
2022-08-02T02:41:13.970Z,100.00
2022-08-02T02:44:04.027Z,100.00
2022-08-02T02:46:54.676Z,100.00
2022-08-02T02:49:45.034Z,100.00
2022-08-02T02:52:33.881Z,100.00
2022-08-02T02:55:25.320Z,100.00
2022-08-02T02:58:14.116Z,100.00
2022-08-02T03:01:20.114Z,100.00
2022-08-02T03:04:11.829Z,100.00
2022-08-02T03:07:01.421Z,100.00
2022-08-02T03:09:54.643Z,100.00
2022-08-02T03:12:44.569Z,100.00
2022-08-02T03:15:32.835Z,100.00
2022-08-02T03:18:33.815Z,100.00
2022-08-02T03:21:22.168Z,100.00
2022-08-02T03:24:10.403Z,100.00
2022-08-02T03:26:58.404Z,100.00
2022-08-02T03:29:47.744Z,100.00
2022-08-02T03:32:37.036Z,100.00
2022-08-02T03:35:25.198Z,100.00
2022-08-02T03:38:14.860Z,100.00
2022-08-02T03:41:04.492Z,100.00
2022-08-02T03:43:53.855Z,100.00
2022-08-02T03:46:44.286Z,100.00
2022-08-02T03:49:32.788Z,100.00
2022-08-02T03:52:21.403Z,100.00
2022-08-02T03:55:11.390Z,100.00
2022-08-02T03:57:59.511Z,100.00
2022-08-02T04:00:47.713Z,100.00
2022-08-02T04:03:37.129Z,100.00
2022-08-02T04:06:28.365Z,100.00
2022-08-02T04:09:16.511Z,100.00
2022-08-02T04:12:05.078Z,100.00
2022-08-02T04:14:53.292Z,100.00
2022-08-02T04:17:46.880Z,100.00
2022-08-02T04:20:38.153Z,100.00
2022-08-02T04:23:27.590Z,100.00
2022-08-02T04:26:26.793Z,100.00
2022-08-02T04:29:18.121Z,100.00
2022-08-02T04:32:07.765Z,100.00
2022-08-02T04:35:18.774Z,100.00
2022-08-02T04:38:10.208Z,100.00
2022-08-02T04:40:58.602Z,100.00
2022-08-02T04:43:46.649Z,100.00
2022-08-02T04:46:34.986Z,100.00
2022-08-02T04:49:23.073Z,100.00
2022-08-02T04:52:11.324Z,100.00
2022-08-02T04:55:00.897Z,100.00
2022-08-02T04:57:58.605Z,100.00
2022-08-02T05:00:46.766Z,100.00
2022-08-02T05:03:34.881Z,100.00
2022-08-02T05:06:22.913Z,100.00
2022-08-02T05:09:10.930Z,100.00
2022-08-02T05:12:00.369Z,100.00
2022-08-02T05:14:48.431Z,100.00
2022-08-02T05:17:36.528Z,100.00
2022-08-02T05:20:24.691Z,100.00
2022-08-02T05:23:12.808Z,100.00
2022-08-02T05:26:00.907Z,100.00
2022-08-02T05:28:50.353Z,100.00
2022-08-02T05:31:38.408Z,100.00
2022-08-02T05:34:26.411Z,100.00
2022-08-02T05:37:14.449Z,100.00
2022-08-02T05:40:02.545Z,100.00
2022-08-02T05:42:50.641Z,100.00
2022-08-02T05:45:40.296Z,100.00
2022-08-02T05:48:31.900Z,100.00
2022-08-02T05:51:24.799Z,100.00
2022-08-02T05:54:19.995Z,100.00
2022-08-02T05:57:17.773Z,100.00
2022-08-02T06:00:09.787Z,100.00
2022-08-02T06:03:09.677Z,100.00
2022-08-02T06:06:01.536Z,100.00
2022-08-02T06:08:52.185Z,100.00
2022-08-02T06:12:01.941Z,100.00
2022-08-02T06:14:54.394Z,100.00
2022-08-02T06:17:45.753Z,100.00
2022-08-02T06:20:36.464Z,100.00
2022-08-02T06:23:25.555Z,100.00
2022-08-02T06:26:14.521Z,100.00
2022-08-02T06:29:03.051Z,100.00
2022-08-02T06:31:53.646Z,100.00
2022-08-02T06:34:41.738Z,100.00
2022-08-02T06:37:38.426Z,100.00
2022-08-02T06:40:29.327Z,100.00
2022-08-02T06:43:22.626Z,100.00
2022-08-02T06:47:10.231Z,100.00
2022-08-02T06:49:18.779Z,100.00
2022-08-02T06:52:07.245Z,100.00
2022-08-02T06:54:57.804Z,100.00
2022-08-02T06:57:45.822Z,100.00
2022-08-02T07:00:33.887Z,100.00
2022-08-02T07:03:21.974Z,100.00
2022-08-02T07:06:10.670Z,100.00
2022-08-02T07:09:19.411Z,100.00
2022-08-02T07:12:09.021Z,100.00
2022-08-02T07:14:57.977Z,100.00
2022-08-02T07:17:46.073Z,100.00
2022-08-02T07:20:34.295Z,94.19
2022-08-02T07:23:22.345Z,83.74
2022-08-02T07:26:10.387Z,78.68
2022-08-02T07:28:59.713Z,72.82
2022-08-02T07:31:47.740Z,67.03
2022-08-02T07:34:36.533Z,61.30
2022-08-02T07:37:52.949Z,58.69
2022-08-02T07:40:34.870Z,58.66
2022-08-02T07:43:22.855Z,56.73
2022-08-02T07:46:12.244Z,58.43
2022-08-02T07:49:00.405Z,55.80
2022-08-02T07:51:48.479Z,54.55
2022-08-02T07:54:36.652Z,52.56
2022-08-02T07:57:25.152Z,51.84
2022-08-02T08:00:14.249Z,49.80
2022-08-02T08:03:03.744Z,50.33
2022-08-02T08:05:52.737Z,49.65
2022-08-02T08:08:40.768Z,50.45
2022-08-02T08:11:29.023Z,50.60
2022-08-02T08:14:17.247Z,50.57
2022-08-02T08:17:05.664Z,52.11
2022-08-02T08:19:55.070Z,52.06
2022-08-02T08:22:43.122Z,52.71
2022-08-02T08:25:31.240Z,53.55
2022-08-02T08:28:27.744Z,54.81
2022-08-02T08:31:15.982Z,53.50
2022-08-02T08:34:04.140Z,53.37
2022-08-02T08:36:53.507Z,54.70
2022-08-02T08:39:56.245Z,52.63
2022-08-02T08:42:46.591Z,51.24
2022-08-02T08:45:34.812Z,49.77
2022-08-02T08:48:30.470Z,49.38
2022-08-02T08:51:22.363Z,51.44
2022-08-02T08:54:16.380Z,51.29
2022-08-02T08:57:06.890Z,50.09
2022-08-02T08:59:54.954Z,49.36
2022-08-02T09:02:43.743Z,47.72
2022-08-02T09:05:31.926Z,48.54
2022-08-02T09:08:20.020Z,48.72
2022-08-02T09:11:16.471Z,47.31
2022-08-02T09:14:05.116Z,46.01
2022-08-02T09:16:53.152Z,45.05
2022-08-02T09:19:46.012Z,46.23
2022-08-02T09:22:34.521Z,44.69
2022-08-02T09:25:22.675Z,45.61
2022-08-02T09:28:12.363Z,44.55
2022-08-02T09:31:09.120Z,45.51
2022-08-02T09:33:59.050Z,45.33
2022-08-02T09:36:48.466Z,42.72
2022-08-02T09:39:46.659Z,42.95
2022-08-02T09:42:36.061Z,42.53
2022-08-02T09:45:31.564Z,41.22
2022-08-02T09:48:19.574Z,41.08
2022-08-02T09:51:08.381Z,41.36
2022-08-02T09:54:07.881Z,41.96
2022-08-02T09:56:58.967Z,40.71
2022-08-02T09:59:53.870Z,40.47
2022-08-02T10:03:07.904Z,39.10
2022-08-02T10:06:02.230Z,39.89
2022-08-02T10:08:53.295Z,38.82
2022-08-02T10:11:42.371Z,39.75
2022-08-02T10:14:30.901Z,40.14
2022-08-02T10:17:19.871Z,39.11
2022-08-02T10:20:10.534Z,38.95
2022-08-02T10:23:00.433Z,39.36
2022-08-02T10:25:51.635Z,38.92
2022-08-02T10:28:40.002Z,38.01
2022-08-02T10:31:34.760Z,38.90
2022-08-02T10:34:31.710Z,37.61
2022-08-02T10:37:24.132Z,36.91
2022-08-02T10:40:23.996Z,37.81
2022-08-02T10:43:12.048Z,36.13
2022-08-02T10:46:22.458Z,37.23
2022-08-02T10:49:37.995Z,38.27
2022-08-02T10:52:23.546Z,37.19
2022-08-02T10:55:22.143Z,36.40
2022-08-02T10:58:18.260Z,34.97
2022-08-02T11:01:27.263Z,35.47
2022-08-02T11:04:32.316Z,35.17
2022-08-02T11:07:22.037Z,36.19
2022-08-02T11:10:33.452Z,34.29
2022-08-02T11:13:21.500Z,35.33
2022-08-02T11:16:12.064Z,33.99
2022-08-02T11:19:06.841Z,34.64
2022-08-02T11:22:03.457Z,34.46
2022-08-02T11:24:51.476Z,33.33
2022-08-02T11:27:39.736Z,33.56
2022-08-02T11:30:28.348Z,34.45
2022-08-02T11:33:16.379Z,33.91
2022-08-02T11:36:07.473Z,34.03
2022-08-02T11:39:12.386Z,33.12
2022-08-02T11:42:04.007Z,32.77
2022-08-02T11:44:52.069Z,33.01
2022-08-02T11:47:47.117Z,32.99
2022-08-02T11:50:35.401Z,32.82
2022-08-02T11:53:23.463Z,32.38
2022-08-02T11:56:13.658Z,32.22
2022-08-02T11:59:14.421Z,33.70
2022-08-02T12:02:05.899Z,32.67
2022-08-02T12:04:57.970Z,31.77
2022-08-02T12:07:47.690Z,32.04
2022-08-02T12:10:35.801Z,31.30
2022-08-02T12:13:25.170Z,31.04
2022-08-02T12:16:32.015Z,31.38
2022-08-02T12:19:20.456Z,30.96
2022-08-02T12:22:10.846Z,31.64
2022-08-02T12:24:59.200Z,30.83
2022-08-02T12:27:47.379Z,31.73
2022-08-02T12:30:52.600Z,29.92
2022-08-02T12:33:47.679Z,31.61
2022-08-02T12:36:35.756Z,30.62
2022-08-02T12:39:35.133Z,30.57
2022-08-02T12:42:23.140Z,30.71
2022-08-02T12:45:11.167Z,30.46
2022-08-02T12:48:01.903Z,30.24
2022-08-02T12:50:49.950Z,30.72
2022-08-02T12:53:37.986Z,30.09
2022-08-02T12:56:30.364Z,30.41
2022-08-02T12:59:38.776Z,30.42
2022-08-02T13:02:27.414Z,30.13
2022-08-02T13:05:17.086Z,30.63
2022-08-02T13:08:06.274Z,29.92
2022-08-02T13:10:54.290Z,30.10
2022-08-02T13:13:43.315Z,30.18
2022-08-02T13:16:33.022Z,29.79
2022-08-02T13:19:21.090Z,30.83
2022-08-02T13:22:10.778Z,31.32
2022-08-02T13:24:58.891Z,31.51
2022-08-02T13:27:47.001Z,30.58
2022-08-02T13:30:35.115Z,31.32
2022-08-02T13:33:23.151Z,30.28
2022-08-02T13:36:11.141Z,29.21
2022-08-02T13:39:00.613Z,29.36
2022-08-02T13:41:48.637Z,29.43
2022-08-02T13:44:36.839Z,29.83
2022-08-02T13:47:26.536Z,30.05
2022-08-02T13:50:24.974Z,29.86
2022-08-02T13:53:13.667Z,29.45
2022-08-02T13:56:03.141Z,28.69
2022-08-02T13:58:51.156Z,29.71
2022-08-02T14:01:39.294Z,29.09
2022-08-02T14:04:28.357Z,29.84
2022-08-02T14:07:16.902Z,29.23
2022-08-02T14:10:05.438Z,29.45
2022-08-02T14:12:56.511Z,29.68
2022-08-02T14:15:45.315Z,29.17
2022-08-02T14:18:33.397Z,30.26
2022-08-02T14:21:21.397Z,29.55
2022-08-02T14:24:09.557Z,30.01
2022-08-02T14:26:57.625Z,30.09
2022-08-02T14:29:48.157Z,29.19
2022-08-02T14:32:36.163Z,29.45
2022-08-02T14:35:24.159Z,28.30
2022-08-02T14:38:12.239Z,28.86
2022-08-02T14:41:00.334Z,29.46
2022-08-02T14:44:07.920Z,29.50
2022-08-02T14:46:57.779Z,29.28
2022-08-02T14:49:49.881Z,28.83
2022-08-02T14:52:38.514Z,28.45
2022-08-02T14:55:26.551Z,28.25
2022-08-02T14:58:14.658Z,28.05
2022-08-02T15:01:02.794Z,28.01
2022-08-02T15:03:54.315Z,28.36
2022-08-02T15:06:42.363Z,28.34
2022-08-02T15:09:30.592Z,28.23
2022-08-02T15:12:18.840Z,28.68
2022-08-02T15:15:08.185Z,27.73
2022-08-02T15:17:56.222Z,27.93
2022-08-02T15:20:57.409Z,27.90
2022-08-02T15:23:46.163Z,28.19
2022-08-02T15:26:34.130Z,28.44
2022-08-02T15:29:22.598Z,28.27
2022-08-02T15:32:11.236Z,28.22
2022-08-02T15:34:59.572Z,28.04
2022-08-02T15:37:48.869Z,28.34
2022-08-02T15:40:36.905Z,28.33
2022-08-02T15:43:25.032Z,28.17
2022-08-02T15:46:13.170Z,29.03
2022-08-02T15:49:01.219Z,28.71
2022-08-02T15:51:49.269Z,27.80
2022-08-02T15:54:38.732Z,28.29
2022-08-02T15:57:27.626Z,28.65
2022-08-02T16:00:18.396Z,29.19
2022-08-02T16:03:06.959Z,28.45
2022-08-02T16:05:54.938Z,28.50
2022-08-02T16:08:53.754Z,29.02
2022-08-02T16:11:44.457Z,28.37
2022-08-02T16:14:32.518Z,29.97
2022-08-02T16:17:48.361Z,28.01
2022-08-02T16:20:28.498Z,28.84
2022-08-02T16:23:16.497Z,29.02
2022-08-02T16:26:04.568Z,29.40
2022-08-02T16:28:54.190Z,28.66
2022-08-02T16:31:42.984Z,28.48
2022-08-02T16:34:45.070Z,29.60
2022-08-02T16:37:51.623Z,29.13
2022-08-02T16:40:40.645Z,28.79
2022-08-02T16:43:28.733Z,29.00
2022-08-02T16:46:19.138Z,28.58
2022-08-02T16:49:07.514Z,29.76
2022-08-02T16:52:15.407Z,28.74
2022-08-02T16:55:03.565Z,27.85
2022-08-02T16:58:00.349Z,27.33
2022-08-02T17:00:49.132Z,26.68
2022-08-02T17:03:56.933Z,26.50
2022-08-02T17:06:47.938Z,24.87
2022-08-02T17:10:02.551Z,25.17
2022-08-02T17:12:54.132Z,24.55
2022-08-02T17:16:01.721Z,25.86
2022-08-02T17:18:52.541Z,26.87
2022-08-02T17:21:40.561Z,27.32
2022-08-02T17:24:28.557Z,30.37
2022-08-02T17:27:18.126Z,32.73
2022-08-02T17:30:15.450Z,32.84
2022-08-02T17:33:03.438Z,34.31
2022-08-02T17:35:52.943Z,36.27
2022-08-02T17:38:50.255Z,37.61
2022-08-02T17:41:49.262Z,38.72
2022-08-02T17:44:38.735Z,40.11
2022-08-02T17:47:30.788Z,39.49
2022-08-02T17:50:19.317Z,40.06
2022-08-02T17:53:09.868Z,40.10
2022-08-02T17:55:58.396Z,41.14
2022-08-02T18:01:55.977Z,44.45
2022-08-02T18:04:44.008Z,45.64
2022-08-02T18:07:49.567Z,45.21
2022-08-02T18:10:40.409Z,47.22
2022-08-02T18:13:33.178Z,46.30
2022-08-02T18:16:36.552Z,47.96
2022-08-02T18:19:33.074Z,47.22
2022-08-02T18:22:31.022Z,48.10
2022-08-02T18:25:37.466Z,47.21
2022-08-02T18:28:28.439Z,47.22
2022-08-02T18:31:22.216Z,47.95
2022-08-02T18:34:10.510Z,48.42
2022-08-02T18:36:58.788Z,47.85
2022-08-02T18:39:51.788Z,48.31
2022-08-02T18:42:40.017Z,48.94
2022-08-02T18:46:05.616Z,49.28
2022-08-02T18:48:38.540Z,49.89
2022-08-02T18:51:27.158Z,49.45
2022-08-02T18:54:30.782Z,49.67
2022-08-02T18:58:17.453Z,49.67
2022-08-02T19:00:32.059Z,50.01
2022-08-02T19:03:21.522Z,50.86
2022-08-02T19:06:10.133Z,50.47
2022-08-02T19:09:05.460Z,50.87
2022-08-02T19:11:59.925Z,50.59
2022-08-02T19:14:47.930Z,51.70
2022-08-02T19:17:54.453Z,51.24
2022-08-02T19:23:54.460Z,52.27
2022-08-02T19:26:42.958Z,52.40
2022-08-02T19:29:49.087Z,52.44
2022-08-02T19:32:58.968Z,52.34
2022-08-02T19:36:01.698Z,52.63
2022-08-02T19:38:52.188Z,52.99
2022-08-02T19:41:43.586Z,52.69
2022-08-02T19:44:32.138Z,53.77
2022-08-02T19:47:20.281Z,53.45
2022-08-02T19:50:12.711Z,54.15
2022-08-02T19:53:00.693Z,53.71
2022-08-02T19:56:00.035Z,53.47
2022-08-02T19:58:51.365Z,54.22
2022-08-02T20:01:44.840Z,54.39
2022-08-02T20:04:34.632Z,54.03
2022-08-02T20:07:54.674Z,54.48
2022-08-02T20:10:34.299Z,54.84
2022-08-02T20:13:24.476Z,55.07
2022-08-02T20:16:27.285Z,56.33
2022-08-02T20:19:16.461Z,55.10
2022-08-02T20:22:04.643Z,55.11
2022-08-02T20:24:54.024Z,55.31
2022-08-02T20:27:51.046Z,54.86
2022-08-02T20:30:39.839Z,54.96
2022-08-02T20:33:27.888Z,55.02
2022-08-02T20:36:15.979Z,54.34
2022-08-02T20:39:05.227Z,54.27
2022-08-02T20:41:57.165Z,54.58
2022-08-02T20:44:47.586Z,53.75
2022-08-02T20:47:39.903Z,52.90
2022-08-02T20:50:45.717Z,53.07
2022-08-02T20:53:54.575Z,52.29
2022-08-02T20:56:44.421Z,52.07
2022-08-02T20:59:40.628Z,51.81
2022-08-02T21:02:30.875Z,51.66
2022-08-02T21:05:20.219Z,51.10
2022-08-02T21:08:15.407Z,50.37
2022-08-02T21:11:08.974Z,50.50
2022-08-02T21:14:06.489Z,50.06
2022-08-02T21:16:58.678Z,50.03
2022-08-02T21:19:47.272Z,50.03
2022-08-02T21:22:35.284Z,49.84
2022-08-02T21:25:42.304Z,50.14
2022-08-02T21:28:34.973Z,49.70
2022-08-02T21:31:35.760Z,49.64
2022-08-02T21:34:27.117Z,50.58
2022-08-02T21:37:16.852Z,50.48
2022-08-02T21:40:06.090Z,50.99
2022-08-02T21:42:57.470Z,51.71
2022-08-02T21:45:53.603Z,51.83
2022-08-02T21:51:34.428Z,52.22
2022-08-02T21:54:23.215Z,51.58
2022-08-02T21:57:16.553Z,52.54
2022-08-02T22:00:10.626Z,52.43
2022-08-02T22:02:58.719Z,52.85
2022-08-02T22:05:47.309Z,52.85
2022-08-02T22:08:36.800Z,52.08
2022-08-02T22:11:24.781Z,52.22
2022-08-02T22:14:13.984Z,52.57
2022-08-02T22:17:01.977Z,53.16
2022-08-02T22:19:56.579Z,54.04
2022-08-02T22:22:44.991Z,54.18
2022-08-02T22:25:37.844Z,55.09
2022-08-02T22:28:38.532Z,55.52
2022-08-02T22:31:40.561Z,56.85
2022-08-02T22:34:51.398Z,56.86
2022-08-02T22:38:16.844Z,57.49
2022-08-02T22:40:48.270Z,57.03
2022-08-02T22:43:36.295Z,57.49
2022-08-02T22:46:26.627Z,58.08
2022-08-02T22:49:37.033Z,57.53
2022-08-02T22:52:22.954Z,58.74
2022-08-02T22:55:11.998Z,58.59
2022-08-02T22:58:02.954Z,58.68
2022-08-02T22:58:49.438Z,43.89
2022-08-02T22:59:00.377Z,52.15
2022-08-02T23:00:52.339Z,59.70
2022-08-02T23:03:41.337Z,60.89
2022-08-02T23:06:29.333Z,61.30
2022-08-02T23:09:17.345Z,61.46
2022-08-02T23:12:06.331Z,61.31
2022-08-02T23:14:55.752Z,63.03
2022-08-02T23:18:01.643Z,63.61
2022-08-02T23:20:49.737Z,64.80
2022-08-02T23:23:38.143Z,65.89
2022-08-02T23:26:26.254Z,67.20
2022-08-02T23:29:14.221Z,66.75
2022-08-02T23:32:03.880Z,67.07
2022-08-02T23:34:52.304Z,66.92
2022-08-02T23:37:59.081Z,66.45
2022-08-02T23:40:48.412Z,65.57
2022-08-02T23:43:47.049Z,66.63
2022-08-02T23:46:45.496Z,67.44
2022-08-02T23:49:34.985Z,66.02
2022-08-02T23:52:24.853Z,66.92
2022-08-02T23:55:12.989Z,67.15
2022-08-02T23:58:00.958Z,67.58
